createdAt,value
2023-02-09T12:19:55.290Z,1005.68
2023-02-09T12:20:55.182Z,1005.65
2023-02-09T12:21:55.102Z,1005.65
2023-02-09T12:22:55.034Z,1005.66
2023-02-09T12:23:54.972Z,1005.65
2023-02-09T12:24:54.873Z,1005.69
2023-02-09T12:25:54.800Z,1005.67
2023-02-09T12:26:54.721Z,1005.61
2023-02-09T12:27:54.715Z,1005.64
2023-02-09T12:28:54.572Z,1005.68
2023-02-09T12:29:54.493Z,1005.68
2023-02-09T12:30:54.489Z,1005.66
2023-02-09T12:31:54.401Z,1005.65
2023-02-09T12:32:54.266Z,1005.58
2023-02-09T12:33:54.192Z,1005.60
2023-02-09T12:34:54.191Z,1005.59
2023-02-09T12:35:54.061Z,1005.60
2023-02-09T12:36:53.967Z,1005.59
2023-02-09T12:37:53.887Z,1005.59
2023-02-09T12:38:56.753Z,1005.54
2023-02-09T12:40:00.001Z,1005.57
2023-02-09T12:40:53.660Z,1005.55
2023-02-09T12:41:53.585Z,1005.52
2023-02-09T12:42:53.508Z,1005.49
2023-02-09T12:43:53.432Z,1005.53
2023-02-09T12:44:53.362Z,1005.49
2023-02-09T12:45:53.334Z,1005.52
2023-02-09T12:46:53.208Z,1005.50
2023-02-09T12:47:53.138Z,1005.46
2023-02-09T12:48:53.056Z,1005.41
2023-02-09T12:49:52.982Z,1005.43
2023-02-09T12:50:52.922Z,1005.36
2023-02-09T12:51:52.885Z,1005.38
2023-02-09T12:52:52.756Z,1005.35
2023-02-09T12:53:52.680Z,1005.37
2023-02-09T12:54:52.605Z,1005.40
2023-02-09T12:55:52.528Z,1005.37
2023-02-09T12:56:52.501Z,1005.34
2023-02-09T12:57:52.387Z,1005.34
2023-02-09T12:58:52.310Z,1005.33
2023-02-09T12:59:52.226Z,1005.34
2023-02-09T13:00:52.169Z,1005.37
2023-02-09T13:01:52.171Z,1005.32
2023-02-09T13:02:51.989Z,1005.34
2023-02-09T13:03:51.986Z,1005.26
2023-02-09T13:04:51.838Z,1005.24
2023-02-09T13:05:51.764Z,1005.29
2023-02-09T13:06:51.686Z,1005.28
2023-02-09T13:07:51.665Z,1005.30
2023-02-09T13:08:51.530Z,1005.25
2023-02-09T13:09:51.451Z,1005.23
2023-02-09T13:10:51.373Z,1005.20
2023-02-09T13:11:51.300Z,1005.20
2023-02-09T13:12:51.216Z,1005.20
2023-02-09T13:13:51.141Z,1005.16
2023-02-09T13:14:51.061Z,1005.18
2023-02-09T13:15:50.984Z,1005.28
2023-02-09T13:16:51.003Z,1005.31
2023-02-09T13:17:50.825Z,1005.33
2023-02-09T13:18:50.746Z,1005.36
2023-02-09T13:19:50.672Z,1005.37
2023-02-09T13:20:50.589Z,1005.25
2023-02-09T13:21:50.509Z,1005.20
2023-02-09T13:22:50.430Z,1005.16
2023-02-09T13:23:50.379Z,1005.21
2023-02-09T13:24:50.273Z,1005.16
2023-02-09T13:28:55.951Z,1005.15
2023-02-09T13:29:55.868Z,1005.12
2023-02-09T13:37:02.756Z,1005.21
2023-02-09T13:38:02.649Z,1005.23
2023-02-09T13:39:02.596Z,1005.19
2023-02-09T13:40:02.482Z,1005.18
2023-02-09T13:41:02.398Z,1005.21
2023-02-09T13:42:02.380Z,1005.18
2023-02-09T13:43:02.232Z,1005.18
2023-02-09T13:44:02.153Z,1005.17
2023-02-09T13:45:02.143Z,1005.18
2023-02-09T13:46:02.054Z,1005.22
2023-02-09T13:47:01.907Z,1005.17
2023-02-09T13:48:01.879Z,1005.18
2023-02-09T13:49:01.734Z,1005.21
2023-02-09T13:50:01.851Z,1005.23
2023-02-09T13:51:01.653Z,1005.22
2023-02-09T13:52:01.503Z,1005.26
2023-02-09T13:53:01.400Z,1005.28
2023-02-09T13:54:01.334Z,1005.31
2023-02-09T13:55:01.253Z,1005.34
2023-02-09T13:56:01.152Z,1005.33
2023-02-09T13:57:03.691Z,1005.31
2023-02-09T13:58:01.008Z,1005.33
2023-02-09T13:59:00.897Z,1005.36
2023-02-09T14:00:00.813Z,1005.39
2023-02-09T15:27:40.377Z,1004.98
2023-02-09T15:28:40.298Z,1005.05
2023-02-09T15:29:40.173Z,1005.05
2023-02-09T15:30:40.086Z,1005.07
2023-02-09T15:31:40.118Z,1005.10
2023-02-09T15:32:39.913Z,1005.16
2023-02-09T15:33:39.830Z,1005.16
2023-02-09T15:34:39.743Z,1005.20
2023-02-09T15:35:39.655Z,1005.21
2023-02-09T15:36:39.572Z,1005.18
2023-02-09T15:37:39.488Z,1005.18
2023-02-09T15:38:39.395Z,1005.27
2023-02-09T15:39:39.364Z,1005.22
2023-02-09T15:40:39.243Z,1005.22
2023-02-09T15:41:39.173Z,1005.24
2023-02-09T15:42:39.079Z,1005.20
2023-02-09T15:43:38.987Z,1005.18
2023-02-09T15:44:38.879Z,1005.25
2023-02-09T15:45:38.843Z,1005.28
2023-02-09T15:46:38.762Z,1005.26
2023-02-09T15:47:38.622Z,1005.31
2023-02-09T15:48:38.533Z,1005.30
2023-02-09T15:49:38.448Z,1005.33
2023-02-09T15:50:38.360Z,1005.33
2023-02-09T15:51:38.283Z,1005.34
2023-02-09T15:52:38.198Z,1005.32
2023-02-09T15:53:38.113Z,1005.38
2023-02-09T15:54:38.044Z,1005.36
2023-02-09T15:55:37.929Z,1005.29
2023-02-09T15:56:37.845Z,1005.29
2023-02-09T15:57:37.811Z,1005.27
2023-02-09T15:58:37.671Z,1005.25
2023-02-09T15:59:37.600Z,1005.26
2023-02-09T16:00:37.492Z,1005.27
2023-02-09T16:01:37.471Z,1005.26
2023-02-09T16:02:37.366Z,1005.31
2023-02-09T16:03:37.239Z,1005.32
2023-02-09T16:04:37.146Z,1005.32
2023-02-09T16:05:37.061Z,1005.34
2023-02-09T16:06:36.974Z,1005.30
2023-02-09T16:07:36.888Z,1005.25
2023-02-09T16:08:36.800Z,1005.21
2023-02-09T16:09:36.744Z,1005.20
2023-02-09T16:10:36.991Z,1005.21
2023-02-09T16:11:36.539Z,1005.26
2023-02-09T16:12:36.450Z,1005.27
2023-02-09T16:13:36.363Z,1005.29
2023-02-09T16:14:36.275Z,1005.34
2023-02-09T16:15:36.211Z,1005.36
2023-02-09T16:16:36.142Z,1005.30
2023-02-09T16:17:36.014Z,1005.27
2023-02-09T16:18:35.926Z,1005.24
2023-02-09T16:19:35.836Z,1005.30
2023-02-09T16:20:38.581Z,1005.31
2023-02-09T16:21:35.665Z,1005.36
2023-02-09T16:22:35.575Z,1005.37
2023-02-09T16:23:35.494Z,1005.39
2023-02-09T16:24:35.422Z,1005.35
2023-02-09T16:25:35.313Z,1005.38
2023-02-09T16:26:35.227Z,1005.44
2023-02-09T16:27:35.195Z,1005.42
2023-02-09T16:28:35.106Z,1005.48
2023-02-09T16:29:34.967Z,1005.48
2023-02-09T16:30:34.896Z,1005.46
2023-02-09T16:31:34.852Z,1005.49
2023-02-09T16:32:34.698Z,1005.55
2023-02-09T16:33:34.611Z,1005.59
2023-02-09T16:34:34.777Z,1005.59
2023-02-09T16:35:34.436Z,1005.59
2023-02-09T16:36:34.357Z,1005.64
2023-02-09T16:37:34.510Z,1005.67
2023-02-09T16:38:34.321Z,1005.74
2023-02-09T16:39:34.087Z,1005.78
2023-02-09T16:40:34.006Z,1005.76
2023-02-09T16:41:33.908Z,1005.77
2023-02-09T16:42:33.820Z,1005.84
2023-02-09T16:43:33.734Z,1005.81
2023-02-09T16:44:33.650Z,1005.79
2023-02-09T16:45:33.555Z,1005.80
2023-02-09T16:46:33.508Z,1005.76
2023-02-09T16:47:33.419Z,1005.75
2023-02-09T16:48:33.296Z,1005.78
2023-02-09T16:49:33.197Z,1005.83
2023-02-09T16:50:33.395Z,1005.89
2023-02-09T16:51:33.030Z,1005.95
2023-02-09T16:52:32.929Z,1005.93
2023-02-09T16:53:32.899Z,1005.91
2023-02-09T16:54:32.752Z,1005.97
2023-02-09T16:55:32.667Z,1005.99
2023-02-09T16:56:32.574Z,1006.00
2023-02-09T16:57:32.488Z,1005.97
2023-02-09T16:58:32.451Z,1006.00
2023-02-09T16:59:32.311Z,1005.98
2023-02-09T17:00:32.249Z,1005.97
2023-02-09T17:01:32.132Z,1005.98
2023-02-09T17:02:32.047Z,1005.95
2023-02-09T17:03:31.981Z,1005.94
2023-02-09T17:04:31.864Z,1005.88
2023-02-09T17:05:31.774Z,1005.86
2023-02-09T17:06:31.685Z,1005.85
2023-02-09T17:07:32.988Z,1005.90
2023-02-09T17:08:31.506Z,1005.91
2023-02-09T17:09:31.418Z,1005.90
2023-02-09T17:10:31.335Z,1005.93
2023-02-09T17:11:31.242Z,1005.93
2023-02-09T17:12:31.148Z,1005.97
2023-02-09T17:13:31.520Z,1005.94
2023-02-09T17:14:30.971Z,1005.83
2023-02-09T17:15:32.154Z,1005.78
2023-02-09T17:16:30.889Z,1005.73
2023-02-09T17:17:30.704Z,1005.73
2023-02-09T17:18:30.627Z,1005.75
2023-02-09T17:19:42.121Z,1005.70
2023-02-09T17:20:30.446Z,1005.67
2023-02-09T17:21:30.348Z,1005.71
2023-02-09T17:22:30.259Z,1005.66
2023-02-09T17:23:30.169Z,1005.70
2023-02-09T17:24:30.082Z,1005.73
2023-02-09T17:25:30.135Z,1005.80
2023-02-09T17:26:30.050Z,1005.79
2023-02-09T17:27:29.814Z,1005.79
2023-02-09T17:28:29.797Z,1005.74
2023-02-09T17:29:29.635Z,1005.74
2023-02-09T17:30:29.544Z,1005.78
2023-02-09T17:31:29.509Z,1005.81
2023-02-09T17:32:29.374Z,1005.80
2023-02-09T17:33:29.285Z,1005.82
2023-02-09T17:34:29.498Z,1005.87
2023-02-09T17:35:55.894Z,1005.91
2023-02-09T17:36:29.579Z,1005.91
2023-02-09T17:37:28.922Z,1005.94
2023-02-09T17:38:28.832Z,1005.93
2023-02-09T17:39:30.743Z,1005.94
2023-02-09T17:40:28.648Z,1005.90
2023-02-09T17:41:28.565Z,1005.91
2023-02-09T17:42:28.482Z,1005.88
2023-02-09T17:43:28.391Z,1005.87
2023-02-09T17:44:44.984Z,1005.90
2023-02-09T17:45:28.342Z,1005.97
2023-02-09T17:46:28.134Z,1006.03
2023-02-09T17:47:28.023Z,1006.03
2023-02-09T17:48:27.936Z,1006.05
2023-02-09T17:49:28.000Z,1006.05
2023-02-09T17:50:27.755Z,1006.04
2023-02-09T17:51:27.688Z,1006.06
2023-02-09T17:52:27.584Z,1006.05
2023-02-09T17:53:27.533Z,1006.11
2023-02-09T17:54:27.405Z,1006.06
2023-02-09T17:55:27.309Z,1006.09
2023-02-09T17:56:27.220Z,1006.14
2023-02-09T17:57:27.287Z,1006.16
2023-02-09T17:58:27.044Z,1006.22
2023-02-09T17:59:27.053Z,1006.28
2023-02-09T18:00:26.867Z,1006.25
2023-02-09T18:01:27.134Z,1006.24
2023-02-09T18:02:26.704Z,1006.24
2023-02-09T18:03:26.604Z,1006.26
2023-02-09T18:04:26.503Z,1006.30
2023-02-09T18:05:26.417Z,1006.30
2023-02-09T18:06:26.322Z,1006.31
2023-02-09T18:07:26.264Z,1006.36
2023-02-09T18:08:26.146Z,1006.35
2023-02-09T18:09:26.061Z,1006.32
2023-02-09T18:10:26.123Z,1006.35
2023-02-09T18:11:25.879Z,1006.36
2023-02-09T18:12:25.787Z,1006.41
2023-02-09T18:13:25.707Z,1006.42
2023-02-09T18:14:25.607Z,1006.35
2023-02-09T18:15:25.522Z,1006.32
2023-02-09T18:16:25.548Z,1006.31
2023-02-09T18:17:25.351Z,1006.32
2023-02-09T18:18:25.257Z,1006.34
2023-02-09T18:19:25.159Z,1006.36
2023-02-09T18:20:25.068Z,1006.36
2023-02-09T18:21:24.979Z,1006.37
2023-02-09T18:22:24.891Z,1006.39
2023-02-09T18:23:24.821Z,1006.42
2023-02-09T18:24:24.709Z,1006.42
2023-02-09T18:25:24.770Z,1006.38
2023-02-09T18:26:24.531Z,1006.39
2023-02-09T18:27:24.446Z,1006.37
2023-02-09T18:28:24.491Z,1006.36
2023-02-09T18:29:24.261Z,1006.39
2023-02-09T18:30:24.169Z,1006.40
2023-02-09T18:31:24.079Z,1006.41
2023-02-09T18:32:24.017Z,1006.42
2023-02-09T18:33:23.951Z,1006.41
2023-02-09T18:34:23.815Z,1006.43
2023-02-09T18:35:23.740Z,1006.43
2023-02-09T18:36:23.626Z,1006.42
2023-02-09T18:37:23.540Z,1006.38
2023-02-09T18:38:23.446Z,1006.37
2023-02-09T18:39:23.395Z,1006.40
2023-02-09T18:40:23.566Z,1006.39
2023-02-09T18:41:23.178Z,1006.40
2023-02-09T18:42:23.087Z,1006.44
2023-02-09T18:43:22.995Z,1006.45
2023-02-09T18:44:22.908Z,1006.44
2023-02-09T18:45:22.816Z,1006.46
2023-02-09T18:46:22.789Z,1006.45
2023-02-09T18:47:22.636Z,1006.46
2023-02-09T18:48:22.594Z,1006.49
2023-02-09T18:49:22.461Z,1006.50
2023-02-09T18:50:22.364Z,1006.62
2023-02-09T18:51:22.282Z,1006.62
2023-02-09T18:52:22.187Z,1006.66
2023-02-09T18:53:22.108Z,1006.64
2023-02-09T18:54:22.009Z,1006.65
2023-02-09T18:55:21.936Z,1006.62
2023-02-09T18:56:21.939Z,1006.62
2023-02-09T18:57:21.736Z,1006.65
2023-02-09T18:58:21.658Z,1006.62
2023-02-09T18:59:21.557Z,1006.64
2023-02-09T19:00:21.466Z,1006.65
2023-02-09T19:01:21.484Z,1006.66
2023-02-09T19:02:21.435Z,1006.71
2023-02-09T19:03:21.197Z,1006.72
2023-02-09T19:04:21.107Z,1006.75
2023-02-09T19:05:21.026Z,1006.72
2023-02-09T19:06:20.928Z,1006.72
2023-02-09T19:07:20.844Z,1006.75
2023-02-09T19:08:20.950Z,1006.78
2023-02-09T19:09:20.759Z,1006.80
2023-02-09T19:10:20.577Z,1006.85
2023-02-09T19:11:20.499Z,1006.83
2023-02-09T19:12:20.388Z,1006.87
2023-02-09T19:13:20.302Z,1006.88
2023-02-09T19:14:20.217Z,1006.89
2023-02-09T19:15:20.121Z,1006.86
2023-02-09T19:16:20.096Z,1006.84
2023-02-09T19:17:19.962Z,1006.82
2023-02-09T19:18:19.856Z,1006.89
2023-02-09T19:19:19.766Z,1006.88
2023-02-09T19:20:19.721Z,1006.91
2023-02-09T19:21:19.580Z,1006.93
2023-02-09T19:22:19.490Z,1006.92
2023-02-09T19:23:19.426Z,1006.94
2023-02-09T19:24:19.310Z,1006.92
2023-02-09T19:25:19.225Z,1006.94
2023-02-09T19:26:19.129Z,1006.95
2023-02-09T19:27:19.069Z,1006.96
2023-02-09T19:28:19.017Z,1006.89
2023-02-09T19:29:18.912Z,1006.87
2023-02-09T19:30:18.767Z,1006.92
2023-02-09T19:31:18.824Z,1006.92
2023-02-09T19:32:18.593Z,1006.89
2023-02-09T19:33:18.652Z,1006.95
2023-02-09T19:34:18.412Z,1006.92
2023-02-09T19:35:18.573Z,1006.96
2023-02-09T19:36:18.230Z,1007.01
2023-02-09T19:37:18.154Z,1007.00
2023-02-09T19:38:18.047Z,1007.04
2023-02-09T19:39:17.958Z,1007.05
2023-02-09T19:40:17.864Z,1007.04
2023-02-09T19:41:17.778Z,1007.06
2023-02-09T19:42:17.686Z,1007.08
2023-02-09T19:43:17.614Z,1007.11
2023-02-09T19:44:17.543Z,1007.10
2023-02-09T19:45:17.486Z,1007.13
2023-02-09T19:46:17.324Z,1007.14
2023-02-09T19:47:17.238Z,1007.14
2023-02-09T19:48:17.453Z,1007.15
2023-02-09T19:49:17.058Z,1007.10
2023-02-09T19:50:17.023Z,1007.12
2023-02-09T19:51:16.874Z,1007.10
2023-02-09T19:52:16.784Z,1007.10
2023-02-09T19:53:16.697Z,1007.09
2023-02-09T19:54:16.607Z,1007.00
2023-02-09T19:55:16.515Z,1007.02
2023-02-09T19:56:16.481Z,1007.04
2023-02-09T19:57:16.336Z,1007.11
2023-02-09T19:58:16.248Z,1007.09
2023-02-09T19:59:16.175Z,1007.06
2023-02-09T20:00:16.070Z,1007.09
2023-02-09T20:01:16.048Z,1007.13
2023-02-09T20:02:15.889Z,1007.14
2023-02-09T20:03:15.819Z,1007.10
2023-02-09T20:04:15.707Z,1007.11
2023-02-09T20:05:15.616Z,1007.11
2023-02-09T20:06:15.532Z,1007.05
2023-02-09T20:07:15.436Z,1007.11
2023-02-09T20:08:15.349Z,1007.09
2023-02-09T20:09:15.259Z,1007.05
2023-02-09T20:10:15.366Z,1007.04
2023-02-09T20:11:15.075Z,1007.04
2023-02-09T20:12:14.988Z,1007.06
2023-02-09T20:13:15.129Z,1007.02
2023-02-09T20:14:14.814Z,1007.06
2023-02-09T20:15:14.795Z,1007.04
2023-02-09T20:16:14.655Z,1007.06
2023-02-09T20:17:14.736Z,1007.05
2023-02-09T20:18:16.006Z,1007.04
2023-02-09T20:19:14.357Z,1007.02
2023-02-09T20:20:14.267Z,1006.98
2023-02-09T20:21:14.182Z,1006.99
2023-02-09T20:22:14.091Z,1007.00
2023-02-09T20:23:14.001Z,1007.04
2023-02-09T20:24:13.912Z,1007.04
2023-02-09T20:25:13.820Z,1007.07
2023-02-09T20:26:13.731Z,1007.05
2023-02-09T20:27:13.687Z,1007.07
2023-02-09T20:28:13.681Z,1007.08
2023-02-09T20:29:13.464Z,1007.12
2023-02-09T20:30:13.372Z,1007.14
2023-02-09T20:31:15.018Z,1007.08
2023-02-09T20:32:13.191Z,1007.10
2023-02-09T20:33:13.102Z,1007.11
2023-02-09T20:34:13.018Z,1007.14
2023-02-09T20:35:12.928Z,1007.16
2023-02-09T20:36:12.835Z,1007.19
2023-02-09T20:37:12.741Z,1007.15
2023-02-09T20:38:12.657Z,1007.16
2023-02-09T20:39:12.610Z,1007.14
2023-02-09T20:40:12.480Z,1007.14
2023-02-09T20:41:12.383Z,1007.18
2023-02-09T20:42:12.295Z,1007.18
2023-02-09T20:43:12.208Z,1007.19
2023-02-09T20:44:12.116Z,1007.21
2023-02-09T20:45:12.034Z,1007.24
2023-02-09T20:46:11.976Z,1007.24
2023-02-09T20:47:11.864Z,1007.26
2023-02-09T20:48:11.758Z,1007.26
2023-02-09T20:49:11.667Z,1007.27
2023-02-09T20:50:11.578Z,1007.29
2023-02-09T20:51:11.485Z,1007.27
2023-02-09T20:52:11.396Z,1007.30
2023-02-09T20:53:11.304Z,1007.30
2023-02-09T20:54:11.218Z,1007.31
2023-02-09T20:55:11.125Z,1007.30
2023-02-09T20:56:11.039Z,1007.30
2023-02-09T20:57:10.948Z,1007.38
2023-02-09T20:58:10.857Z,1007.32
2023-02-09T20:59:10.767Z,1007.35
2023-02-09T21:00:10.738Z,1007.35
2023-02-09T21:01:10.655Z,1007.38
2023-02-09T21:02:10.559Z,1007.45
2023-02-09T21:03:10.438Z,1007.40
2023-02-09T21:04:10.326Z,1007.45
2023-02-09T21:05:10.229Z,1007.45
2023-02-09T21:06:10.153Z,1007.47
2023-02-09T21:07:10.048Z,1007.43
2023-02-09T21:08:09.960Z,1007.46
2023-02-09T21:09:09.873Z,1007.46
2023-02-09T21:10:09.783Z,1007.47
2023-02-09T21:11:09.773Z,1007.45
2023-02-09T21:12:09.600Z,1007.49
2023-02-09T21:13:09.515Z,1007.45
2023-02-09T21:14:21.640Z,1007.43
2023-02-09T21:15:09.378Z,1007.42
2023-02-09T21:16:09.392Z,1007.42
2023-02-09T21:17:09.151Z,1007.35
2023-02-09T21:18:09.059Z,1007.42
2023-02-09T21:19:08.987Z,1007.43
2023-02-09T21:20:08.885Z,1007.41
2023-02-09T21:21:08.802Z,1007.41
2023-02-09T21:22:08.966Z,1007.42
2023-02-09T21:23:08.609Z,1007.44
2023-02-09T21:24:08.518Z,1007.43
2023-02-09T21:25:08.428Z,1007.39
2023-02-09T21:26:08.344Z,1007.41
2023-02-09T21:27:08.248Z,1007.38
2023-02-09T21:28:08.181Z,1007.38
2023-02-09T21:29:08.073Z,1007.36
2023-02-09T21:30:07.988Z,1007.38
2023-02-09T21:31:07.887Z,1007.37
2023-02-09T21:32:07.799Z,1007.34
2023-02-09T21:33:07.714Z,1007.33
2023-02-09T21:34:07.624Z,1007.36
2023-02-09T21:35:07.548Z,1007.38
2023-02-09T21:36:07.439Z,1007.36
2023-02-09T21:37:07.346Z,1007.33
2023-02-09T21:38:07.256Z,1007.34
2023-02-09T21:39:07.313Z,1007.32
2023-02-09T21:40:07.150Z,1007.33
2023-02-09T21:41:06.986Z,1007.30
2023-02-09T21:42:06.894Z,1007.32
2023-02-09T21:43:06.850Z,1007.34
2023-02-09T21:44:06.714Z,1007.31
2023-02-09T21:45:07.925Z,1007.26
2023-02-09T21:46:06.638Z,1007.24
2023-02-09T21:47:06.439Z,1007.26
2023-02-09T21:48:06.402Z,1007.25
2023-02-09T21:49:06.263Z,1007.25
2023-02-09T21:50:06.271Z,1007.26
2023-02-09T21:51:06.101Z,1007.22
2023-02-09T21:52:05.988Z,1007.23
2023-02-09T21:53:05.905Z,1007.27
2023-02-09T21:54:05.808Z,1007.26
2023-02-09T21:55:05.967Z,1007.23
2023-02-09T21:56:05.632Z,1007.25
2023-02-09T21:57:05.538Z,1007.23
2023-02-09T21:58:05.446Z,1007.24
2023-02-09T21:59:05.359Z,1007.19
2023-02-09T22:00:05.290Z,1007.19
2023-02-09T22:01:05.205Z,1007.18
2023-02-09T22:02:05.083Z,1007.21
2023-02-09T22:03:04.993Z,1007.21
2023-02-09T22:04:05.045Z,1007.24
2023-02-09T22:05:04.814Z,1007.26
2023-02-09T22:06:04.724Z,1007.29
2023-02-09T22:07:04.659Z,1007.28
2023-02-09T22:08:04.541Z,1007.19
2023-02-09T22:09:04.451Z,1007.24
2023-02-09T22:10:04.361Z,1007.23
2023-02-09T22:11:04.269Z,1007.25
2023-02-09T22:12:04.429Z,1007.28
2023-02-09T22:13:04.088Z,1007.30
2023-02-09T22:14:04.004Z,1007.30
2023-02-09T22:15:03.904Z,1007.31
2023-02-09T22:16:03.820Z,1007.34
2023-02-09T22:17:03.875Z,1007.36
2023-02-09T22:18:03.637Z,1007.37
2023-02-09T22:19:03.544Z,1007.36
2023-02-09T22:20:03.461Z,1007.36
2023-02-09T22:21:03.364Z,1007.40
2023-02-09T22:22:03.274Z,1007.38
2023-02-09T22:23:03.201Z,1007.36
2023-02-09T22:24:03.094Z,1007.43
2023-02-09T22:25:03.062Z,1007.40
2023-02-09T22:26:02.910Z,1007.39
2023-02-09T22:27:02.820Z,1007.38
2023-02-09T22:28:02.773Z,1007.38
2023-02-09T22:29:02.639Z,1007.38
2023-02-09T22:30:02.578Z,1007.37
2023-02-09T22:31:02.495Z,1007.35
2023-02-09T22:32:02.372Z,1007.42
2023-02-09T22:33:02.279Z,1007.42
2023-02-09T22:34:02.189Z,1007.41
2023-02-09T22:35:02.095Z,1007.44
2023-02-09T22:36:02.004Z,1007.43
2023-02-09T22:37:01.917Z,1007.42
2023-02-09T22:38:01.825Z,1007.43
2023-02-09T22:39:01.753Z,1007.47
2023-02-09T22:40:01.642Z,1007.46
2023-02-09T22:41:01.554Z,1007.48
2023-02-09T22:42:01.495Z,1007.46
2023-02-09T22:43:01.369Z,1007.47
2023-02-09T22:44:01.280Z,1007.40
2023-02-09T22:45:01.190Z,1007.38
2023-02-09T22:46:01.477Z,1007.39
2023-02-09T22:47:01.010Z,1007.36
2023-02-09T22:48:00.921Z,1007.30
2023-02-09T22:49:00.838Z,1007.36
2023-02-09T22:50:00.755Z,1007.30
2023-02-09T22:51:00.649Z,1007.35
2023-02-09T22:52:00.562Z,1007.35
2023-02-09T22:53:00.473Z,1007.37
2023-02-09T22:54:00.386Z,1007.38
2023-02-09T22:55:00.328Z,1007.41
2023-02-09T22:56:00.208Z,1007.43
2023-02-09T22:57:00.122Z,1007.40
2023-02-09T22:58:00.028Z,1007.47
2023-02-09T22:58:59.955Z,1007.47
2023-02-09T22:59:59.844Z,1007.50
2023-02-09T23:00:59.768Z,1007.55
2023-02-09T23:01:59.922Z,1007.55
2023-02-09T23:02:59.572Z,1007.56
2023-02-09T23:03:59.592Z,1007.56
2023-02-09T23:04:59.392Z,1007.55
2023-02-09T23:05:59.302Z,1007.58
2023-02-09T23:06:59.213Z,1007.53
2023-02-09T23:07:59.124Z,1007.60
2023-02-09T23:08:59.044Z,1007.59
2023-02-09T23:09:58.942Z,1007.57
2023-02-09T23:10:58.874Z,1007.56
2023-02-09T23:11:58.763Z,1007.58
2023-02-09T23:12:58.682Z,1007.59
2023-02-09T23:14:11.680Z,1007.64
2023-02-09T23:14:58.544Z,1007.65
2023-02-09T23:15:58.457Z,1007.62
2023-02-09T23:16:58.314Z,1007.62
2023-02-09T23:17:58.223Z,1007.66
2023-02-09T23:18:58.136Z,1007.65
2023-02-09T23:19:58.196Z,1007.63
2023-02-09T23:20:57.950Z,1007.68
2023-02-09T23:21:57.861Z,1007.70
2023-02-09T23:22:57.768Z,1007.67
2023-02-09T23:23:57.678Z,1007.66
2023-02-09T23:24:57.588Z,1007.66
2023-02-09T23:25:57.502Z,1007.64
2023-02-09T23:26:57.426Z,1007.63
2023-02-09T23:27:57.343Z,1007.70
2023-02-09T23:28:57.410Z,1007.71
2023-02-09T23:29:57.132Z,1007.68
2023-02-09T23:30:57.051Z,1007.65
2023-02-09T23:31:56.950Z,1007.61
2023-02-09T23:32:56.868Z,1007.55
2023-02-09T23:33:56.777Z,1007.62
2023-02-09T23:34:56.677Z,1007.60
2023-02-09T23:35:56.587Z,1007.60
2023-02-09T23:37:01.412Z,1007.59
2023-02-09T23:37:56.408Z,1007.62
2023-02-09T23:38:56.330Z,1007.64
2023-02-09T23:39:56.380Z,1007.62
2023-02-09T23:40:56.134Z,1007.60
2023-02-09T23:41:56.050Z,1007.65
2023-02-09T23:42:55.971Z,1007.64
2023-02-09T23:43:55.861Z,1007.63
2023-02-09T23:44:55.922Z,1007.67
2023-02-09T23:45:55.775Z,1007.64
2023-02-09T23:46:55.597Z,1007.64
2023-02-09T23:47:55.506Z,1007.65
2023-02-09T23:48:55.455Z,1007.62
2023-02-09T23:49:55.320Z,1007.63
2023-02-09T23:50:55.231Z,1007.65
2023-02-09T23:51:55.142Z,1007.62
2023-02-09T23:52:55.051Z,1007.69
2023-02-09T23:53:54.959Z,1007.66
2023-02-09T23:54:54.879Z,1007.71
2023-02-09T23:55:54.781Z,1007.65
2023-02-09T23:56:54.690Z,1007.71
2023-02-09T23:57:54.596Z,1007.74
2023-02-09T23:58:54.526Z,1007.75
2023-02-09T23:59:54.766Z,1007.76
